Terminal Aerodrome Forecast
Issued by NWS Green Bay, WI

Home | Current Version | Previous Version | Graphics & Text | Print | Product List | Glossary On
Versions: 1 2 3 4 5 6 7 8 9 10 11 12 13 14 15 16 17 18 19 20 21 22 23 24 25 26 27 28 29 30 31 32 33 34 35 36 37
000
FTUS43 KGRB 191100
TAFGRB
TAF
KGRB 191130Z 1912/2012 30010G15KT P6SM SCT028 OVC050
     FM191500 33012G18KT P6SM FEW030 BKN040
     FM191900 34011G15KT P6SM SCT050
     FM200100 01007KT P6SM SKC=

USA.gov is the U.S. government's official web portal to all federal, state and local government web resources and services.